sensor_id;sensor_type;location;lat;lon;timestamp;pressure;altitude;pressure_sealevel;temperature;humidity
78843;BME280;70542;53.774;-0.352;2023-08-12T00:02:12;101330;;;23;32
78843;BME280;70542;53.774;-0.352;2023-08-12T00:07:51;101330;;;21;35
78843;BME280;70542;53.774;-0.352;2023-08-12T00:13:30;101330;;;21;36
78843;BME280;70542;53.774;-0.352;2023-08-12T00:19:09;101320;;;23;33
78843;BME280;70542;53.774;-0.352;2023-08-12T00:24:47;101320;;;20;39
78843;BME280;70542;53.774;-0.352;2023-08-12T00:30:26;101310;;;20;38
78843;BME280;70542;53.774;-0.352;2023-08-12T00:36:05;101310;;;20;39
78843;BME280;70542;53.774;-0.352;2023-08-12T00:41:45;101310;;;20;39
78843;BME280;70542;53.774;-0.352;2023-08-12T00:47:29;101300;;;21;35
78843;BME280;70542;53.774;-0.352;2023-08-12T00:53:10;101300;;;20;38
78843;BME280;70542;53.774;-0.352;2023-08-12T00:58:50;101290;;;20;39
78843;BME280;70542;53.774;-0.352;2023-08-12T01:04:29;101290;;;21;38
78843;BME280;70542;53.774;-0.352;2023-08-12T01:10:08;101290;;;22;34
78843;BME280;70542;53.774;-0.352;2023-08-12T01:15:52;101280;;;20;39
78843;BME280;70542;53.774;-0.352;2023-08-12T01:21:33;101280;;;20;39
78843;BME280;70542;53.774;-0.352;2023-08-12T01:27:15;101270;;;20;39
78843;BME280;70542;53.774;-0.352;2023-08-12T01:33:00;101270;;;20;39
78843;BME280;70542;53.774;-0.352;2023-08-12T01:38:40;101270;;;20;39
78843;BME280;70542;53.774;-0.352;2023-08-12T01:44:26;101270;;;22;35
78843;BME280;70542;53.774;-0.352;2023-08-12T01:50:16;101270;;;21;36
78843;BME280;70542;53.774;-0.352;2023-08-12T01:56:04;101270;;;21;36
78843;BME280;70542;53.774;-0.352;2023-08-12T02:01:47;101260;;;22;34
78843;BME280;70542;53.774;-0.352;2023-08-12T02:07:37;101250;;;21;36
78843;BME280;70542;53.774;-0.352;2023-08-12T02:13:15;101250;;;19;41
78843;BME280;70542;53.774;-0.352;2023-08-12T02:18:54;101240;;;19;40
78843;BME280;70542;53.774;-0.352;2023-08-12T02:24:33;101230;;;21;36
78843;BME280;70542;53.774;-0.352;2023-08-12T02:30:12;101230;;;21;36
78843;BME280;70542;53.774;-0.352;2023-08-12T02:35:53;101230;;;21;36
78843;BME280;70542;53.774;-0.352;2023-08-12T02:41:32;101220;;;21;37
78843;BME280;70542;53.774;-0.352;2023-08-12T02:47:10;101230;;;20;39
78843;BME280;70542;53.774;-0.352;2023-08-12T02:52:49;101220;;;18;43
78843;BME280;70542;53.774;-0.352;2023-08-12T02:58:27;101210;;;22;35
78843;BME280;70542;53.774;-0.352;2023-08-12T03:04:06;101210;;;19;40
78843;BME280;70542;53.774;-0.352;2023-08-12T03:09:45;101200;;;18;43
78843;BME280;70542;53.774;-0.352;2023-08-12T03:15:23;101200;;;18;43
78843;BME280;70542;53.774;-0.352;2023-08-12T03:21:05;101190;;;18;43
78843;BME280;70542;53.774;-0.352;2023-08-12T03:26:44;101190;;;19;42
78843;BME280;70542;53.774;-0.352;2023-08-12T03:32:23;101180;;;19;42
78843;BME280;70542;53.774;-0.352;2023-08-12T03:38:04;101180;;;19;41
78843;BME280;70542;53.774;-0.352;2023-08-12T03:43:42;101170;;;18;42
78843;BME280;70542;53.774;-0.352;2023-08-12T03:49:21;101170;;;19;41
78843;BME280;70542;53.774;-0.352;2023-08-12T03:55:01;101170;;;21;37
78843;BME280;70542;53.774;-0.352;2023-08-12T04:00:40;101160;;;20;40
78843;BME280;70542;53.774;-0.352;2023-08-12T04:06:19;101170;;;19;41
78843;BME280;70542;53.774;-0.352;2023-08-12T04:11:58;101160;;;20;39
78843;BME280;70542;53.774;-0.352;2023-08-12T04:17:37;101160;;;19;40
78843;BME280;70542;53.774;-0.352;2023-08-12T04:23:16;101150;;;19;40
78843;BME280;70542;53.774;-0.352;2023-08-12T04:28:55;101150;;;21;37
78843;BME280;70542;53.774;-0.352;2023-08-12T04:34:39;101150;;;19;41
78843;BME280;70542;53.774;-0.352;2023-08-12T04:40:17;101140;;;18;43
78843;BME280;70542;53.774;-0.352;2023-08-12T04:45:56;101140;;;19;42
78843;BME280;70542;53.774;-0.352;2023-08-12T04:51:40;101140;;;20;39
78843;BME280;70542;53.774;-0.352;2023-08-12T04:57:18;101130;;;20;41
78843;BME280;70542;53.774;-0.352;2023-08-12T05:02:57;101130;;;20;38
78843;BME280;70542;53.774;-0.352;2023-08-12T05:08:36;101130;;;19;41
78843;BME280;70542;53.774;-0.352;2023-08-12T05:14:14;101130;;;19;41
78843;BME280;70542;53.774;-0.352;2023-08-12T05:19:53;101130;;;19;42
78843;BME280;70542;53.774;-0.352;2023-08-12T05:25:38;101120;;;19;41
78843;BME280;70542;53.774;-0.352;2023-08-12T05:31:17;101120;;;20;40
78843;BME280;70542;53.774;-0.352;2023-08-12T05:36:57;101120;;;21;38
78843;BME280;70542;53.774;-0.352;2023-08-12T05:42:35;101130;;;20;40
78843;BME280;70542;53.774;-0.352;2023-08-12T05:48:14;101130;;;18;42
78843;BME280;70542;53.774;-0.352;2023-08-12T05:54:09;101130;;;19;42
78843;BME280;70542;53.774;-0.352;2023-08-12T05:59:51;101130;;;19;42
78843;BME280;70542;53.774;-0.352;2023-08-12T06:05:46;101120;;;18;43
78843;BME280;70542;53.774;-0.352;2023-08-12T06:11:46;101110;;;19;42
78843;BME280;70542;53.774;-0.352;2023-08-12T06:17:34;101110;;;19;43
78843;BME280;70542;53.774;-0.352;2023-08-12T06:23:19;101100;;;19;42
78843;BME280;70542;53.774;-0.352;2023-08-12T06:29:03;101100;;;20;41
78843;BME280;70542;53.774;-0.352;2023-08-12T06:34:50;101090;;;20;41
78843;BME280;70542;53.774;-0.352;2023-08-12T06:40:40;101090;;;20;40
78843;BME280;70542;53.774;-0.352;2023-08-12T06:46:19;101090;;;19;42
78843;BME280;70542;53.774;-0.352;2023-08-12T06:51:58;101080;;;20;41
78843;BME280;70542;53.774;-0.352;2023-08-12T06:57:36;101080;;;20;42
78843;BME280;70542;53.774;-0.352;2023-08-12T07:03:15;101070;;;22;38
78843;BME280;70542;53.774;-0.352;2023-08-12T07:08:54;101060;;;20;41
78843;BME280;70542;53.774;-0.352;2023-08-12T07:14:37;101070;;;21;40
78843;BME280;70542;53.774;-0.352;2023-08-12T07:20:16;101080;;;20;42
78843;BME280;70542;53.774;-0.352;2023-08-12T07:25:55;101080;;;20;40
78843;BME280;70542;53.774;-0.352;2023-08-12T07:31:34;101060;;;21;39
78843;BME280;70542;53.774;-0.352;2023-08-12T07:37:12;101060;;;23;37
78843;BME280;70542;53.774;-0.352;2023-08-12T07:42:51;101060;;;22;38
78843;BME280;70542;53.774;-0.352;2023-08-12T07:48:29;101060;;;22;39
78843;BME280;70542;53.774;-0.352;2023-08-12T07:54:08;101050;;;22;39
78843;BME280;70542;53.774;-0.352;2023-08-12T07:59:47;101050;;;22;37
78843;BME280;70542;53.774;-0.352;2023-08-12T08:05:25;101050;;;22;37
78843;BME280;70542;53.774;-0.352;2023-08-12T08:11:04;101050;;;22;37
78843;BME280;70542;53.774;-0.352;2023-08-12T08:16:43;101040;;;22;38
78843;BME280;70542;53.774;-0.352;2023-08-12T08:22:22;101050;;;23;36
78843;BME280;70542;53.774;-0.352;2023-08-12T08:28:01;101040;;;21;39
78843;BME280;70542;53.774;-0.352;2023-08-12T08:33:40;101030;;;21;40
78843;BME280;70542;53.774;-0.352;2023-08-12T08:39:19;101030;;;21;39
78843;BME280;70542;53.774;-0.352;2023-08-12T08:45:00;101040;;;22;37
78843;BME280;70542;53.774;-0.352;2023-08-12T08:50:40;101030;;;21;39
78843;BME280;70542;53.774;-0.352;2023-08-12T08:56:19;101030;;;21;40
78843;BME280;70542;53.774;-0.352;2023-08-12T09:01:58;101030;;;22;39
78843;BME280;70542;53.774;-0.352;2023-08-12T09:07:39;101030;;;21;40
78843;BME280;70542;53.774;-0.352;2023-08-12T09:13:19;101020;;;22;38
78843;BME280;70542;53.774;-0.352;2023-08-12T09:18:58;101020;;;22;39
78843;BME280;70542;53.774;-0.352;2023-08-12T09:24:43;101020;;;20;42
78843;BME280;70542;53.774;-0.352;2023-08-12T09:30:39;101000;;;22;39
78843;BME280;70542;53.774;-0.352;2023-08-12T09:36:30;101020;;;21;40
78843;BME280;70542;53.774;-0.352;2023-08-12T09:42:13;101010;;;22;39
78843;BME280;70542;53.774;-0.352;2023-08-12T09:47:52;101020;;;21;38
78843;BME280;70542;53.774;-0.352;2023-08-12T09:53:32;101010;;;22;38
78843;BME280;70542;53.774;-0.352;2023-08-12T09:59:12;101020;;;23;35
78843;BME280;70542;53.774;-0.352;2023-08-12T10:04:54;101020;;;23;35
78843;BME280;70542;53.774;-0.352;2023-08-12T10:10:35;101020;;;22;38
78843;BME280;70542;53.774;-0.352;2023-08-12T10:16:15;101020;;;22;36
78843;BME280;70542;53.774;-0.352;2023-08-12T10:21:55;101010;;;23;36
78843;BME280;70542;53.774;-0.352;2023-08-12T10:27:36;101000;;;22;38
78843;BME280;70542;53.774;-0.352;2023-08-12T10:33:15;101000;;;23;37
78843;BME280;70542;53.774;-0.352;2023-08-12T10:38:56;100990;;;23;37
78843;BME280;70542;53.774;-0.352;2023-08-12T10:44:39;100990;;;23;35
78843;BME280;70542;53.774;-0.352;2023-08-12T10:50:20;100990;;;23;35
78843;BME280;70542;53.774;-0.352;2023-08-12T10:56:01;100990;;;23;36
78843;BME280;70542;53.774;-0.352;2023-08-12T11:01:41;100980;;;23;36
78843;BME280;70542;53.774;-0.352;2023-08-12T11:07:28;100970;;;24;35
78843;BME280;70542;53.774;-0.352;2023-08-12T11:13:05;100960;;;23;35
78843;BME280;70542;53.774;-0.352;2023-08-12T11:18:44;100970;;;23;35
78843;BME280;70542;53.774;-0.352;2023-08-12T11:24:23;100960;;;23;35
78843;BME280;70542;53.774;-0.352;2023-08-12T11:30:02;100960;;;23;35
78843;BME280;70542;53.774;-0.352;2023-08-12T11:35:40;100960;;;23;35
78843;BME280;70542;53.774;-0.352;2023-08-12T11:41:22;100960;;;24;35
78843;BME280;70542;53.774;-0.352;2023-08-12T11:47:00;100960;;;25;33
78843;BME280;70542;53.774;-0.352;2023-08-12T11:52:40;100950;;;23;34
78843;BME280;70542;53.774;-0.352;2023-08-12T11:58:18;100950;;;23;35
78843;BME280;70542;53.774;-0.352;2023-08-12T12:04:00;100940;;;23;34
78843;BME280;70542;53.774;-0.352;2023-08-12T12:09:43;100950;;;24;33
78843;BME280;70542;53.774;-0.352;2023-08-12T12:15:22;100940;;;26;31
78843;BME280;70542;53.774;-0.352;2023-08-12T12:21:01;100930;;;25;33
78843;BME280;70542;53.774;-0.352;2023-08-12T12:26:40;100930;;;25;32
78843;BME280;70542;53.774;-0.352;2023-08-12T12:32:19;100930;;;25;32
78843;BME280;70542;53.774;-0.352;2023-08-12T12:37:59;100940;;;24;35
78843;BME280;70542;53.774;-0.352;2023-08-12T12:43:37;100940;;;25;32
78843;BME280;70542;53.774;-0.352;2023-08-12T12:49:16;100940;;;25;31
78843;BME280;70542;53.774;-0.352;2023-08-12T12:55:00;100940;;;23;34
78843;BME280;70542;53.774;-0.352;2023-08-12T13:00:39;100920;;;25;32
78843;BME280;70542;53.774;-0.352;2023-08-12T13:06:30;100910;;;25;33
78843;BME280;70542;53.774;-0.352;2023-08-12T13:12:27;100900;;;25;33
78843;BME280;70542;53.774;-0.352;2023-08-12T13:18:10;100910;;;24;33
78843;BME280;70542;53.774;-0.352;2023-08-12T13:23:54;100900;;;25;33
78843;BME280;70542;53.774;-0.352;2023-08-12T13:29:32;100900;;;25;33
78843;BME280;70542;53.774;-0.352;2023-08-12T13:35:11;100900;;;25;32
78843;BME280;70542;53.774;-0.352;2023-08-12T13:40:51;100910;;;25;33
78843;BME280;70542;53.774;-0.352;2023-08-12T13:46:29;100910;;;24;37
78843;BME280;70542;53.774;-0.352;2023-08-12T13:52:12;100920;;;24;36
78843;BME280;70542;53.774;-0.352;2023-08-12T13:57:50;100930;;;23;40
78843;BME280;70542;53.774;-0.352;2023-08-12T14:03:29;100920;;;23;39
78843;BME280;70542;53.774;-0.352;2023-08-12T14:09:09;100910;;;24;37
78843;BME280;70542;53.774;-0.352;2023-08-12T14:14:52;100920;;;24;37
78843;BME280;70542;53.774;-0.352;2023-08-12T14:20:31;100930;;;24;36
78843;BME280;70542;53.774;-0.352;2023-08-12T14:26:09;100950;;;23;41
78843;BME280;70542;53.774;-0.352;2023-08-12T14:31:53;100950;;;22;47
78843;BME280;70542;53.774;-0.352;2023-08-12T14:37:32;100930;;;23;45
78843;BME280;70542;53.774;-0.352;2023-08-12T14:43:11;100930;;;23;42
78843;BME280;70542;53.774;-0.352;2023-08-12T14:48:50;100920;;;23;43
78843;BME280;70542;53.774;-0.352;2023-08-12T14:54:33;100910;;;24;42
78843;BME280;70542;53.774;-0.352;2023-08-12T15:00:13;100910;;;25;40
78843;BME280;70542;53.774;-0.352;2023-08-12T15:05:58;100900;;;23;41
78843;BME280;70542;53.774;-0.352;2023-08-12T15:11:38;100900;;;25;38
78843;BME280;70542;53.774;-0.352;2023-08-12T15:17:17;100890;;;25;38
78843;BME280;70542;53.774;-0.352;2023-08-12T15:22:55;100890;;;25;38
78843;BME280;70542;53.774;-0.352;2023-08-12T15:28:34;100880;;;25;37
78843;BME280;70542;53.774;-0.352;2023-08-12T15:34:13;100870;;;24;38
78843;BME280;70542;53.774;-0.352;2023-08-12T15:39:51;100860;;;26;36
78843;BME280;70542;53.774;-0.352;2023-08-12T15:45:30;100850;;;24;38
78843;BME280;70542;53.774;-0.352;2023-08-12T15:51:09;100860;;;24;37
78843;BME280;70542;53.774;-0.352;2023-08-12T15:56:47;100860;;;25;36
78843;BME280;70542;53.774;-0.352;2023-08-12T16:02:27;100860;;;25;37
78843;BME280;70542;53.774;-0.352;2023-08-12T16:08:06;100860;;;25;35
78843;BME280;70542;53.774;-0.352;2023-08-12T16:13:48;100850;;;25;35
78843;BME280;70542;53.774;-0.352;2023-08-12T16:19:27;100850;;;24;37
78843;BME280;70542;53.774;-0.352;2023-08-12T16:25:08;100850;;;23;39
78843;BME280;70542;53.774;-0.352;2023-08-12T16:30:47;100850;;;24;38
78843;BME280;70542;53.774;-0.352;2023-08-12T16:36:26;100840;;;23;39
78843;BME280;70542;53.774;-0.352;2023-08-12T16:42:05;100840;;;24;38
78843;BME280;70542;53.774;-0.352;2023-08-12T16:47:43;100870;;;22;41
78843;BME280;70542;53.774;-0.352;2023-08-12T16:53:22;100870;;;22;40
78843;BME280;70542;53.774;-0.352;2023-08-12T16:59:06;100860;;;22;41
78843;BME280;70542;53.774;-0.352;2023-08-12T17:04:45;100880;;;22;41
78843;BME280;70542;53.774;-0.352;2023-08-12T17:10:23;100880;;;23;38
78843;BME280;70542;53.774;-0.352;2023-08-12T17:16:07;100870;;;23;39
78843;BME280;70542;53.774;-0.352;2023-08-12T17:21:46;100860;;;23;39
78843;BME280;70542;53.774;-0.352;2023-08-12T17:27:24;100860;;;24;35
78843;BME280;70542;53.774;-0.352;2023-08-12T17:33:09;100860;;;26;33
78843;BME280;70542;53.774;-0.352;2023-08-12T17:38:49;100860;;;23;37
78843;BME280;70542;53.774;-0.352;2023-08-12T17:44:27;100860;;;23;38
78843;BME280;70542;53.774;-0.352;2023-08-12T17:50:11;100870;;;23;38
78843;BME280;70542;53.774;-0.352;2023-08-12T17:55:50;100880;;;23;37
78843;BME280;70542;53.774;-0.352;2023-08-12T18:01:29;100890;;;22;40
78843;BME280;70542;53.774;-0.352;2023-08-12T18:07:08;100890;;;22;41
78843;BME280;70542;53.774;-0.352;2023-08-12T18:12:51;100890;;;23;39
78843;BME280;70542;53.774;-0.352;2023-08-12T18:18:30;100890;;;23;38
78843;BME280;70542;53.774;-0.352;2023-08-12T18:24:09;100890;;;23;38
78843;BME280;70542;53.774;-0.352;2023-08-12T18:29:47;100890;;;24;37
78843;BME280;70542;53.774;-0.352;2023-08-12T18:35:26;100900;;;23;37
78843;BME280;70542;53.774;-0.352;2023-08-12T18:41:08;100900;;;24;36
78843;BME280;70542;53.774;-0.352;2023-08-12T18:46:47;100920;;;22;39
78843;BME280;70542;53.774;-0.352;2023-08-12T18:52:26;100930;;;22;40
78843;BME280;70542;53.774;-0.352;2023-08-12T18:58:05;100930;;;22;38
78843;BME280;70542;53.774;-0.352;2023-08-12T19:03:43;100930;;;23;38
78843;BME280;70542;53.774;-0.352;2023-08-12T19:09:22;100930;;;23;37
78843;BME280;70542;53.774;-0.352;2023-08-12T19:15:02;100940;;;23;37
78843;BME280;70542;53.774;-0.352;2023-08-12T19:20:46;100940;;;23;38
78843;BME280;70542;53.774;-0.352;2023-08-12T19:26:25;100940;;;22;38
78843;BME280;70542;53.774;-0.352;2023-08-12T19:32:04;100950;;;22;39
78843;BME280;70542;53.774;-0.352;2023-08-12T19:37:43;100960;;;22;39
78843;BME280;70542;53.774;-0.352;2023-08-12T19:43:21;100960;;;23;37
78843;BME280;70542;53.774;-0.352;2023-08-12T19:49:01;100960;;;23;38
78843;BME280;70542;53.774;-0.352;2023-08-12T19:54:51;100970;;;22;39
78843;BME280;70542;53.774;-0.352;2023-08-12T20:00:32;100970;;;22;39
78843;BME280;70542;53.774;-0.352;2023-08-12T20:06:11;100980;;;21;39
78843;BME280;70542;53.774;-0.352;2023-08-12T20:11:49;100980;;;22;40
78843;BME280;70542;53.774;-0.352;2023-08-12T20:17:28;100990;;;22;38
78843;BME280;70542;53.774;-0.352;2023-08-12T20:23:08;100990;;;23;38
78843;BME280;70542;53.774;-0.352;2023-08-12T20:28:46;100980;;;22;38
78843;BME280;70542;53.774;-0.352;2023-08-12T20:34:25;100980;;;22;38
78843;BME280;70542;53.774;-0.352;2023-08-12T20:40:06;100990;;;22;39
78843;BME280;70542;53.774;-0.352;2023-08-12T20:45:45;100990;;;21;41
78843;BME280;70542;53.774;-0.352;2023-08-12T20:51:24;101000;;;21;41
78843;BME280;70542;53.774;-0.352;2023-08-12T20:57:13;101000;;;23;38
78843;BME280;70542;53.774;-0.352;2023-08-12T21:03:03;101010;;;23;38
78843;BME280;70542;53.774;-0.352;2023-08-12T21:08:41;101000;;;22;38
78843;BME280;70542;53.774;-0.352;2023-08-12T21:14:21;101010;;;22;39
78843;BME280;70542;53.774;-0.352;2023-08-12T21:20:00;101010;;;20;41
78843;BME280;70542;53.774;-0.352;2023-08-12T21:25:44;101010;;;22;38
78843;BME280;70542;53.774;-0.352;2023-08-12T21:31:34;101010;;;21;40
78843;BME280;70542;53.774;-0.352;2023-08-12T21:37:24;101010;;;21;39
78843;BME280;70542;53.774;-0.352;2023-08-12T21:43:08;101020;;;21;40
78843;BME280;70542;53.774;-0.352;2023-08-12T21:48:57;101020;;;21;39
78843;BME280;70542;53.774;-0.352;2023-08-12T21:54:41;101020;;;22;38
78843;BME280;70542;53.774;-0.352;2023-08-12T22:00:20;101020;;;21;39
78843;BME280;70542;53.774;-0.352;2023-08-12T22:05:59;101020;;;20;40
78843;BME280;70542;53.774;-0.352;2023-08-12T22:11:43;101010;;;21;40
78843;BME280;70542;53.774;-0.352;2023-08-12T22:17:28;101010;;;20;40
78843;BME280;70542;53.774;-0.352;2023-08-12T22:23:08;101010;;;21;39
78843;BME280;70542;53.774;-0.352;2023-08-12T22:28:53;101010;;;22;37
78843;BME280;70542;53.774;-0.352;2023-08-12T22:34:33;101010;;;20;41
78843;BME280;70542;53.774;-0.352;2023-08-12T22:40:24;101010;;;21;39
78843;BME280;70542;53.774;-0.352;2023-08-12T22:46:03;101010;;;20;42
78843;BME280;70542;53.774;-0.352;2023-08-12T22:51:52;101020;;;20;42
78843;BME280;70542;53.774;-0.352;2023-08-12T22:57:31;101010;;;20;43
78843;BME280;70542;53.774;-0.352;2023-08-12T23:03:14;101010;;;20;44
78843;BME280;70542;53.774;-0.352;2023-08-12T23:08:53;101010;;;19;45
78843;BME280;70542;53.774;-0.352;2023-08-12T23:14:32;101020;;;19;45
78843;BME280;70542;53.774;-0.352;2023-08-12T23:20:16;101020;;;20;44
78843;BME280;70542;53.774;-0.352;2023-08-12T23:25:54;101030;;;18;46
78843;BME280;70542;53.774;-0.352;2023-08-12T23:31:33;101020;;;19;45
78843;BME280;70542;53.774;-0.352;2023-08-12T23:37:11;101030;;;19;45
78843;BME280;70542;53.774;-0.352;2023-08-12T23:42:50;101020;;;18;47
78843;BME280;70542;53.774;-0.352;2023-08-12T23:48:33;101020;;;19;45
78843;BME280;70542;53.774;-0.352;2023-08-12T23:54:11;101020;;;18;48
78843;BME280;70542;53.774;-0.352;2023-08-12T23:59:51;101020;;;18;48
